メインページ
METAR-TAF:

METAR-TAF

空港 :

カイエンヌ, フランス領ギアナ

カイエンヌ・フェリックス・エブエ国際空港

緯度: 04-50N, 経度: 052-22W, 海抜: 105m

現時点の気象観測

当レポートは30分前の05:30(UTC)に作成
の風 3kt
気温 24°C
湿度 94%
気圧 1012 hPa
視程10km以上
高度2000ftの千切れ雲あり
高度2600ftの千切れ雲あり
高度6200ftの曇り

METAR: SOCA 250530Z AUTO 10003KT 9999 BKN020 BKN026 OVC062 24/23 Q1012 TEMPO 4000 SHRA FEW015TCU

時間: 03:00 (06:00 UTC)

予報

当レポートは2時間0分前の04:00(UTC)に作成
予報は25日の 06時(UTC)から 26日の 06時(UTC)まで有効
変向風 2kt
視程10km以上
高度2000ftの雲は散在している
高度4000ftの千切れ雲あり
25日の 1300時(UTC)から
北東の風 10kt
視程10km以上
高度2500ftの雲は散在している
高度5000ftの千切れ雲あり
確率 30% :
25日の 06時(UTC)から 25日の 21時(UTC)まで一時的に
視程: 4000m
高度1500ftの雲はほとんどない, 塔状積雲.
にわか雨
確率 30% :
25日の 18時(UTC)から 25日の 21時(UTC)まで一時的に
視程: 2000m
高度1200ftの雲はほとんどない, 積乱雲.
激しい雷雨, 雨
25日の 22時(UTC)から 25日の 23時(UTC)まで徐々に
変向風 3kt

TAF: SOCA 250400Z 2506/2606 VRB02KT 9999 SCT020 BKN040 FM251300 05010KT 9999 SCT025 BKN050 PROB30 TEMPO 2506/2521 4000 SHRA FEW015TCU PROB30 TEMPO 2518/2521 2000 TSRA FEW012CB BECMG 2522/2523 VRB03KT

4,000以上の空港の気象観測と天気予報(METAR報とTAF報)

利用可能な観測所は地図上に黄色い丸と赤い丸で示す。

丸の上にカーソルを重ねると観測所名を参照できる。

次にクリックすると気象観測と天気予報を参照できる。

マップの切り替え:黒色「×」印の緑ボタンをクリックして拡大、「-」印の緑ボタンをクリックして縮小、緑色の三角印をクリックして隣りの地図に切り替え


METAR-TAF: